sensor_id;sensor_type;location;lat;lon;timestamp;pressure;altitude;pressure_sealevel;temperature;humidity
75513;BME280;64090;49.770;18.760;2023-06-14T00:00:57;97490.28;;;6.07;78.52
75513;BME280;64090;49.770;18.760;2023-06-14T00:04:21;97494.42;;;6.02;78.27
75513;BME280;64090;49.770;18.760;2023-06-14T00:07:37;97491.96;;;5.95;78.39
75513;BME280;64090;49.770;18.760;2023-06-14T00:10:39;97489.92;;;5.87;78.71
75513;BME280;64090;49.770;18.760;2023-06-14T00:13:51;97487.61;;;5.78;78.36
75513;BME280;64090;49.770;18.760;2023-06-14T00:17:12;97491.11;;;5.71;78.14
75513;BME280;64090;49.770;18.760;2023-06-14T00:20:22;97492.45;;;5.64;78.34
75513;BME280;64090;49.770;18.760;2023-06-14T00:23:45;97490.73;;;5.56;78.48
75513;BME280;64090;49.770;18.760;2023-06-14T00:26:48;97493.55;;;5.50;78.51
75513;BME280;64090;49.770;18.760;2023-06-14T00:29:54;97487.61;;;5.43;78.66
75513;BME280;64090;49.770;18.760;2023-06-14T00:32:58;97492.66;;;5.39;79.51
75513;BME280;64090;49.770;18.760;2023-06-14T00:36:21;97493.65;;;5.35;79.40
75513;BME280;64090;49.770;18.760;2023-06-14T00:39:25;97493.71;;;5.29;78.96
75513;BME280;64090;49.770;18.760;2023-06-14T00:42:43;97488.73;;;5.22;78.86
75513;BME280;64090;49.770;18.760;2023-06-14T00:45:49;97489.85;;;5.17;79.05
75513;BME280;64090;49.770;18.760;2023-06-14T00:48:57;97489.25;;;5.14;79.25
75513;BME280;64090;49.770;18.760;2023-06-14T00:52:00;97487.22;;;5.10;79.15
75513;BME280;64090;49.770;18.760;2023-06-14T00:55:10;97487.13;;;5.10;83.68
75513;BME280;64090;49.770;18.760;2023-06-14T00:58:21;97482.31;;;5.07;82.09
75513;BME280;64090;49.770;18.760;2023-06-14T01:01:28;97488.05;;;5.09;83.22
75513;BME280;64090;49.770;18.760;2023-06-14T01:04:39;97488.14;;;5.16;86.34
75513;BME280;64090;49.770;18.760;2023-06-14T01:11:13;97488.68;;;5.19;81.45
75513;BME280;64090;49.770;18.760;2023-06-14T01:14:27;97485.23;;;5.14;80.77
75513;BME280;64090;49.770;18.760;2023-06-14T01:17:29;97489.61;;;5.10;80.63
75513;BME280;64090;49.770;18.760;2023-06-14T01:20:56;97486.85;;;5.07;81.31
75513;BME280;64090;49.770;18.760;2023-06-14T01:24:02;97486.27;;;5.07;80.20
75513;BME280;64090;49.770;18.760;2023-06-14T01:27:06;97486.06;;;5.04;80.37
75513;BME280;64090;49.770;18.760;2023-06-14T01:30:40;97484.38;;;5.03;80.44
75513;BME280;64090;49.770;18.760;2023-06-14T01:34:05;97482.70;;;5.01;81.03
75513;BME280;64090;49.770;18.760;2023-06-14T01:37:27;97485.12;;;5.01;81.72
75513;BME280;64090;49.770;18.760;2023-06-14T01:40:40;97488.58;;;5.04;82.69
75513;BME280;64090;49.770;18.760;2023-06-14T01:44:03;97490.08;;;5.07;81.95
75513;BME280;64090;49.770;18.760;2023-06-14T01:47:17;97494.67;;;5.14;81.36
75513;BME280;64090;49.770;18.760;2023-06-14T01:50:22;97492.36;;;5.24;81.27
75513;BME280;64090;49.770;18.760;2023-06-14T01:53:34;97490.48;;;5.37;83.79
75513;BME280;64090;49.770;18.760;2023-06-14T01:56:36;97489.56;;;5.49;83.65
75513;BME280;64090;49.770;18.760;2023-06-14T01:59:42;97489.28;;;5.59;83.64
75513;BME280;64090;49.770;18.760;2023-06-14T02:02:47;97492.06;;;5.70;84.04
75513;BME280;64090;49.770;18.760;2023-06-14T02:05:53;97488.64;;;5.78;82.53
75513;BME280;64090;49.770;18.760;2023-06-14T02:08:59;97486.28;;;5.88;82.94
75513;BME280;64090;49.770;18.760;2023-06-14T02:12:03;97489.50;;;5.98;84.69
75513;BME280;64090;49.770;18.760;2023-06-14T02:15:07;97488.45;;;6.07;83.53
75513;BME280;64090;49.770;18.760;2023-06-14T02:18:38;97489.55;;;6.17;83.28
75513;BME280;64090;49.770;18.760;2023-06-14T02:21:42;97482.92;;;6.27;83.61
75513;BME280;64090;49.770;18.760;2023-06-14T02:25:04;97489.45;;;6.38;83.35
75513;BME280;64090;49.770;18.760;2023-06-14T02:28:11;97487.38;;;6.48;82.96
75513;BME280;64090;49.770;18.760;2023-06-14T02:31:24;97486.34;;;6.58;82.84
75513;BME280;64090;49.770;18.760;2023-06-14T02:34:28;97484.88;;;6.63;82.43
75513;BME280;64090;49.770;18.760;2023-06-14T02:37:32;97484.45;;;6.62;82.27
75513;BME280;64090;49.770;18.760;2023-06-14T02:40:37;97480.27;;;6.57;81.87
75513;BME280;64090;49.770;18.760;2023-06-14T02:50:16;97484.03;;;6.54;81.66
75513;BME280;64090;49.770;18.760;2023-06-14T02:53:20;97486.92;;;6.59;81.94
75513;BME280;64090;49.770;18.760;2023-06-14T02:56:22;97487.09;;;6.66;82.23
75513;BME280;64090;49.770;18.760;2023-06-14T02:59:33;97484.14;;;6.74;82.68
75513;BME280;64090;49.770;18.760;2023-06-14T03:02:47;97488.60;;;6.82;83.83
75513;BME280;64090;49.770;18.760;2023-06-14T03:06:07;97490.08;;;6.91;82.98
75513;BME280;64090;49.770;18.760;2023-06-14T03:09:29;97487.76;;;7.03;81.85
75513;BME280;64090;49.770;18.760;2023-06-14T03:12:39;97489.33;;;7.12;83.13
75513;BME280;64090;49.770;18.760;2023-06-14T03:15:48;97492.35;;;7.20;83.95
75513;BME280;64090;49.770;18.760;2023-06-14T03:19:33;97493.79;;;7.31;84.61
75513;BME280;64090;49.770;18.760;2023-06-14T03:22:37;97493.63;;;7.42;83.84
75513;BME280;64090;49.770;18.760;2023-06-14T03:26:00;97492.20;;;7.52;83.52
75513;BME280;64090;49.770;18.760;2023-06-14T03:29:55;97495.85;;;7.66;83.39
75513;BME280;64090;49.770;18.760;2023-06-14T03:33:14;97493.09;;;7.78;83.39
75513;BME280;64090;49.770;18.760;2023-06-14T03:36:41;97490.86;;;7.88;84.75
75513;BME280;64090;49.770;18.760;2023-06-14T03:40:07;97489.34;;;7.99;84.71
75513;BME280;64090;49.770;18.760;2023-06-14T03:43:42;97498.71;;;8.07;83.42
75513;BME280;64090;49.770;18.760;2023-06-14T03:46:57;97502.72;;;8.16;83.28
75513;BME280;64090;49.770;18.760;2023-06-14T03:50:19;97505.21;;;8.24;83.61
75513;BME280;64090;49.770;18.760;2023-06-14T03:53:42;97507.08;;;8.32;83.42
75513;BME280;64090;49.770;18.760;2023-06-14T03:57:45;97509.80;;;8.41;84.01
75513;BME280;64090;49.770;18.760;2023-06-14T04:01:04;97514.94;;;8.51;82.69
75513;BME280;64090;49.770;18.760;2023-06-14T04:04:45;97515.04;;;8.65;81.43
75513;BME280;64090;49.770;18.760;2023-06-14T04:07:51;97513.52;;;8.77;80.41
75513;BME280;64090;49.770;18.760;2023-06-14T04:11:16;97519.18;;;8.87;80.27
75513;BME280;64090;49.770;18.760;2023-06-14T04:15:00;97519.78;;;8.96;82.34
75513;BME280;64090;49.770;18.760;2023-06-14T04:18:36;97525.06;;;9.08;81.96
75513;BME280;64090;49.770;18.760;2023-06-14T04:22:04;97524.67;;;9.21;82.12
75513;BME280;64090;49.770;18.760;2023-06-14T04:25:24;97527.60;;;9.31;82.63
75513;BME280;64090;49.770;18.760;2023-06-14T04:28:47;97526.06;;;9.44;82.33
75513;BME280;64090;49.770;18.760;2023-06-14T04:32:08;97522.23;;;9.60;81.41
75513;BME280;64090;49.770;18.760;2023-06-14T04:35:20;97522.91;;;9.77;82.20
75513;BME280;64090;49.770;18.760;2023-06-14T04:38:42;97524.91;;;9.91;81.73
75513;BME280;64090;49.770;18.760;2023-06-14T04:41:50;97527.30;;;10.05;81.38
75513;BME280;64090;49.770;18.760;2023-06-14T04:45:38;97526.50;;;10.12;81.28
75513;BME280;64090;49.770;18.760;2023-06-14T04:48:57;97526.20;;;10.22;80.68
75513;BME280;64090;49.770;18.760;2023-06-14T04:52:18;97529.24;;;10.30;80.68
75513;BME280;64090;49.770;18.760;2023-06-14T04:55:46;97531.92;;;10.36;80.32
75513;BME280;64090;49.770;18.760;2023-06-14T04:59:08;97529.90;;;10.54;79.87
75513;BME280;64090;49.770;18.760;2023-06-14T05:02:31;97529.89;;;10.70;79.53
75513;BME280;64090;49.770;18.760;2023-06-14T05:05:49;97523.06;;;10.84;79.33
75513;BME280;64090;49.770;18.760;2023-06-14T05:09:11;97526.52;;;10.99;79.06
75513;BME280;64090;49.770;18.760;2023-06-14T05:12:16;97529.33;;;11.07;78.39
75513;BME280;64090;49.770;18.760;2023-06-14T05:16:00;97530.96;;;11.16;78.36
75513;BME280;64090;49.770;18.760;2023-06-14T05:19:25;97534.19;;;11.30;77.96
75513;BME280;64090;49.770;18.760;2023-06-14T05:22:43;97538.98;;;11.37;78.17
75513;BME280;64090;49.770;18.760;2023-06-14T05:26:00;97543.35;;;11.38;77.88
75513;BME280;64090;49.770;18.760;2023-06-14T05:29:12;97547.77;;;11.44;77.49
75513;BME280;64090;49.770;18.760;2023-06-14T05:32:25;97555.30;;;11.62;77.28
75513;BME280;64090;49.770;18.760;2023-06-14T05:35:53;97555.23;;;11.82;76.73
75513;BME280;64090;49.770;18.760;2023-06-14T05:39:25;97557.40;;;11.90;76.18
75513;BME280;64090;49.770;18.760;2023-06-14T05:42:32;97559.02;;;12.16;75.92
75513;BME280;64090;49.770;18.760;2023-06-14T05:45:58;97562.98;;;12.42;75.35
75513;BME280;64090;49.770;18.760;2023-06-14T05:49:15;97555.39;;;12.76;74.54
75513;BME280;64090;49.770;18.760;2023-06-14T05:52:27;97556.02;;;13.07;73.78
75513;BME280;64090;49.770;18.760;2023-06-14T05:55:45;97555.98;;;13.23;73.54
75513;BME280;64090;49.770;18.760;2023-06-14T05:59:04;97560.11;;;13.52;72.91
75513;BME280;64090;49.770;18.760;2023-06-14T06:02:10;97560.61;;;13.81;71.99
75513;BME280;64090;49.770;18.760;2023-06-14T06:05:34;97561.20;;;14.17;70.96
75513;BME280;64090;49.770;18.760;2023-06-14T06:08:56;97566.17;;;14.24;70.64
75513;BME280;64090;49.770;18.760;2023-06-14T06:12:06;97566.02;;;14.34;70.63
75513;BME280;64090;49.770;18.760;2023-06-14T06:15:47;97571.94;;;14.50;70.79
75513;BME280;64090;49.770;18.760;2023-06-14T06:19:09;97568.12;;;14.81;69.86
75513;BME280;64090;49.770;18.760;2023-06-14T06:22:28;97571.05;;;14.81;68.91
75513;BME280;64090;49.770;18.760;2023-06-14T06:25:42;97576.58;;;14.92;69.12
75513;BME280;64090;49.770;18.760;2023-06-14T06:29:06;97574.27;;;14.78;68.10
75513;BME280;64090;49.770;18.760;2023-06-14T06:32:27;97575.16;;;14.74;68.71
75513;BME280;64090;49.770;18.760;2023-06-14T06:35:33;97579.81;;;14.93;68.46
75513;BME280;64090;49.770;18.760;2023-06-14T06:38:35;97582.29;;;15.07;68.17
75513;BME280;64090;49.770;18.760;2023-06-14T06:42:12;97586.94;;;14.93;68.53
75513;BME280;64090;49.770;18.760;2023-06-14T06:45:17;97591.34;;;14.91;68.42
75513;BME280;64090;49.770;18.760;2023-06-14T06:48:47;97599.34;;;14.59;68.79
75513;BME280;64090;49.770;18.760;2023-06-14T06:52:06;97605.33;;;14.47;69.67
75513;BME280;64090;49.770;18.760;2023-06-14T06:55:16;97606.58;;;14.67;69.94
75513;BME280;64090;49.770;18.760;2023-06-14T06:59:01;97603.61;;;15.16;68.82
75513;BME280;64090;49.770;18.760;2023-06-14T07:02:23;97606.80;;;15.31;68.00
75513;BME280;64090;49.770;18.760;2023-06-14T07:05:26;97608.51;;;15.51;67.56
75513;BME280;64090;49.770;18.760;2023-06-14T07:08:43;97609.13;;;15.76;66.75
75513;BME280;64090;49.770;18.760;2023-06-14T07:11:47;97610.90;;;15.70;66.76
75513;BME280;64090;49.770;18.760;2023-06-14T07:15:10;97614.86;;;15.94;67.18
75513;BME280;64090;49.770;18.760;2023-06-14T07:22:07;97622.39;;;16.49;65.66
75513;BME280;64090;49.770;18.760;2023-06-14T07:25:23;97628.30;;;16.75;64.71
75513;BME280;64090;49.770;18.760;2023-06-14T07:28:38;97625.91;;;16.92;63.69
75513;BME280;64090;49.770;18.760;2023-06-14T07:31:45;97628.55;;;17.05;63.35
75513;BME280;64090;49.770;18.760;2023-06-14T07:35:45;97627.23;;;17.22;62.74
75513;BME280;64090;49.770;18.760;2023-06-14T07:39:12;97628.73;;;17.16;62.19
75513;BME280;64090;49.770;18.760;2023-06-14T07:42:41;97628.34;;;17.02;62.25
75513;BME280;64090;49.770;18.760;2023-06-14T07:46:04;97627.50;;;17.49;61.34
75513;BME280;64090;49.770;18.760;2023-06-14T07:49:46;97624.29;;;18.38;60.42
75513;BME280;64090;49.770;18.760;2023-06-14T07:52:59;97622.62;;;19.37;57.27
75513;BME280;64090;49.770;18.760;2023-06-14T07:56:23;97623.69;;;19.87;56.55
75513;BME280;64090;49.770;18.760;2023-06-14T07:59:28;97619.16;;;20.64;54.49
75513;BME280;64090;49.770;18.760;2023-06-14T08:02:32;97624.95;;;20.86;53.18
75513;BME280;64090;49.770;18.760;2023-06-14T08:06:17;97624.81;;;20.98;51.87
75513;BME280;64090;49.770;18.760;2023-06-14T08:09:26;97620.39;;;20.71;52.76
75513;BME280;64090;49.770;18.760;2023-06-14T08:12:44;97619.95;;;20.95;52.61
75513;BME280;64090;49.770;18.760;2023-06-14T08:16:12;97623.05;;;21.18;52.14
75513;BME280;64090;49.770;18.760;2023-06-14T08:19:36;97618.45;;;21.48;49.79
75513;BME280;64090;49.770;18.760;2023-06-14T08:22:40;97618.84;;;21.67;50.37
75513;BME280;64090;49.770;18.760;2023-06-14T08:26:13;97618.42;;;21.88;48.44
75513;BME280;64090;49.770;18.760;2023-06-14T08:29:19;97618.66;;;21.95;48.43
75513;BME280;64090;49.770;18.760;2023-06-14T08:32:33;97623.13;;;21.89;47.70
75513;BME280;64090;49.770;18.760;2023-06-14T08:35:55;97627.83;;;21.83;47.24
75513;BME280;64090;49.770;18.760;2023-06-14T08:39:12;97625.80;;;21.70;47.50
75513;BME280;64090;49.770;18.760;2023-06-14T08:42:24;97630.84;;;21.34;47.24
75513;BME280;64090;49.770;18.760;2023-06-14T08:45:44;97627.63;;;21.22;47.66
75513;BME280;64090;49.770;18.760;2023-06-14T08:49:23;97630.11;;;21.26;47.43
75513;BME280;64090;49.770;18.760;2023-06-14T08:52:28;97625.27;;;21.15;48.71
75513;BME280;64090;49.770;18.760;2023-06-14T08:56:04;97623.92;;;21.29;48.53
75513;BME280;64090;49.770;18.760;2023-06-14T08:59:26;97623.20;;;21.35;48.00
75513;BME280;64090;49.770;18.760;2023-06-14T09:02:37;97627.45;;;20.96;48.07
75513;BME280;64090;49.770;18.760;2023-06-14T09:05:50;97630.02;;;20.44;48.86
75513;BME280;64090;49.770;18.760;2023-06-14T09:09:17;97635.39;;;19.90;49.44
75513;BME280;64090;49.770;18.760;2023-06-14T09:12:35;97633.30;;;19.51;50.79
75513;BME280;64090;49.770;18.760;2023-06-14T09:15:56;97639.38;;;19.16;51.69
75513;BME280;64090;49.770;18.760;2023-06-14T09:19:01;97642.42;;;19.00;52.63
75513;BME280;64090;49.770;18.760;2023-06-14T09:22:18;97641.34;;;19.08;52.64
75513;BME280;64090;49.770;18.760;2023-06-14T09:25:27;97631.36;;;19.38;51.97
75513;BME280;64090;49.770;18.760;2023-06-14T09:29:15;97629.73;;;19.86;51.69
75513;BME280;64090;49.770;18.760;2023-06-14T09:32:42;97631.75;;;20.31;50.86
75513;BME280;64090;49.770;18.760;2023-06-14T09:35:54;97633.52;;;20.64;49.83
75513;BME280;64090;49.770;18.760;2023-06-14T09:39:10;97638.48;;;20.80;50.54
75513;BME280;64090;49.770;18.760;2023-06-14T09:42:37;97640.02;;;21.19;49.15
75513;BME280;64090;49.770;18.760;2023-06-14T09:45:40;97640.05;;;21.12;49.43
75513;BME280;64090;49.770;18.760;2023-06-14T09:49:08;97639.26;;;21.10;49.52
75513;BME280;64090;49.770;18.760;2023-06-14T09:52:37;97637.70;;;20.86;50.30
75513;BME280;64090;49.770;18.760;2023-06-14T09:55:42;97640.34;;;20.65;51.43
75513;BME280;64090;49.770;18.760;2023-06-14T09:59:05;97642.38;;;20.99;49.86
75513;BME280;64090;49.770;18.760;2023-06-14T10:02:53;97640.64;;;21.14;49.25
75513;BME280;64090;49.770;18.760;2023-06-14T10:06:06;97641.80;;;20.91;49.83
75513;BME280;64090;49.770;18.760;2023-06-14T10:09:20;97638.92;;;20.93;50.71
75513;BME280;64090;49.770;18.760;2023-06-14T10:12:25;97639.31;;;21.09;50.52
75513;BME280;64090;49.770;18.760;2023-06-14T10:23:17;97641.84;;;21.46;48.78
75513;BME280;64090;49.770;18.760;2023-06-14T10:27:01;97634.06;;;21.10;49.65
75513;BME280;64090;49.770;18.760;2023-06-14T10:30:07;97633.58;;;20.93;50.34
75513;BME280;64090;49.770;18.760;2023-06-14T10:33:15;97629.08;;;20.75;50.51
75513;BME280;64090;49.770;18.760;2023-06-14T10:36:32;97626.67;;;20.64;51.33
75513;BME280;64090;49.770;18.760;2023-06-14T10:39:40;97627.60;;;20.60;50.23
75513;BME280;64090;49.770;18.760;2023-06-14T10:43:21;97623.10;;;20.55;51.24
75513;BME280;64090;49.770;18.760;2023-06-14T10:49:52;97623.92;;;20.22;51.78
75513;BME280;64090;49.770;18.760;2023-06-14T10:53:29;97621.09;;;20.67;51.45
75513;BME280;64090;49.770;18.760;2023-06-14T10:56:51;97617.69;;;20.89;50.67
75513;BME280;64090;49.770;18.760;2023-06-14T10:59:59;97610.48;;;20.95;49.82
75513;BME280;64090;49.770;18.760;2023-06-14T11:03:44;97612.48;;;21.23;50.29
75513;BME280;64090;49.770;18.760;2023-06-14T11:07:28;97617.86;;;21.33;49.67
75513;BME280;64090;49.770;18.760;2023-06-14T11:10:48;97622.23;;;21.07;49.92
75513;BME280;64090;49.770;18.760;2023-06-14T11:14:47;97619.50;;;20.80;49.94
75513;BME280;64090;49.770;18.760;2023-06-14T11:18:07;97614.23;;;20.56;50.54
75513;BME280;64090;49.770;18.760;2023-06-14T11:21:41;97615.61;;;20.38;51.47
75513;BME280;64090;49.770;18.760;2023-06-14T11:24:55;97610.64;;;20.79;51.08
75513;BME280;64090;49.770;18.760;2023-06-14T11:28:20;97616.40;;;21.30;49.26
75513;BME280;64090;49.770;18.760;2023-06-14T11:31:33;97609.31;;;21.47;48.73
75513;BME280;64090;49.770;18.760;2023-06-14T11:34:52;97609.98;;;21.17;49.20
75513;BME280;64090;49.770;18.760;2023-06-14T11:38:01;97607.13;;;20.82;50.66
75513;BME280;64090;49.770;18.760;2023-06-14T11:41:15;97606.36;;;20.38;50.23
75513;BME280;64090;49.770;18.760;2023-06-14T11:44:25;97606.64;;;20.33;50.32
75513;BME280;64090;49.770;18.760;2023-06-14T11:47:33;97599.61;;;20.60;49.59
75513;BME280;64090;49.770;18.760;2023-06-14T11:50:42;97599.02;;;20.98;49.60
75513;BME280;64090;49.770;18.760;2023-06-14T11:53:55;97595.06;;;21.67;48.82
75513;BME280;64090;49.770;18.760;2023-06-14T11:57:17;97595.09;;;22.17;48.08
75513;BME280;64090;49.770;18.760;2023-06-14T12:00:37;97589.23;;;22.03;47.55
75513;BME280;64090;49.770;18.760;2023-06-14T12:04:04;97586.82;;;21.94;47.25
75513;BME280;64090;49.770;18.760;2023-06-14T12:07:32;97591.30;;;21.89;46.54
75513;BME280;64090;49.770;18.760;2023-06-14T12:10:58;97593.69;;;21.55;47.14
75513;BME280;64090;49.770;18.760;2023-06-14T12:14:13;97591.84;;;21.49;46.88
75513;BME280;64090;49.770;18.760;2023-06-14T12:17:25;97585.88;;;21.36;47.09
75513;BME280;64090;49.770;18.760;2023-06-14T12:20:48;97586.61;;;21.05;47.41
75513;BME280;64090;49.770;18.760;2023-06-14T12:24:17;97581.99;;;21.11;46.92
75513;BME280;64090;49.770;18.760;2023-06-14T12:27:21;97573.79;;;21.32;46.28
75513;BME280;64090;49.770;18.760;2023-06-14T12:30:33;97570.82;;;21.52;45.27
75513;BME280;64090;49.770;18.760;2023-06-14T12:33:59;97565.98;;;21.64;46.40
75513;BME280;64090;49.770;18.760;2023-06-14T12:37:07;97574.70;;;21.44;46.37
75513;BME280;64090;49.770;18.760;2023-06-14T12:40:15;97572.46;;;21.23;46.36
75513;BME280;64090;49.770;18.760;2023-06-14T12:43:30;97569.80;;;20.91;46.39
75513;BME280;64090;49.770;18.760;2023-06-14T12:46:51;97565.48;;;20.74;47.48
75513;BME280;64090;49.770;18.760;2023-06-14T12:50:02;97559.55;;;20.66;48.21
75513;BME280;64090;49.770;18.760;2023-06-14T12:53:09;97562.79;;;20.99;47.87
75513;BME280;64090;49.770;18.760;2023-06-14T12:56:47;97557.20;;;21.59;46.81
75513;BME280;64090;49.770;18.760;2023-06-14T13:00:01;97556.10;;;21.76;46.16
75513;BME280;64090;49.770;18.760;2023-06-14T13:03:15;97556.19;;;21.63;45.30
75513;BME280;64090;49.770;18.760;2023-06-14T13:06:39;97557.39;;;21.54;45.61
75513;BME280;64090;49.770;18.760;2023-06-14T13:09:55;97557.80;;;21.56;46.48
75513;BME280;64090;49.770;18.760;2023-06-14T13:13:15;97554.09;;;21.54;46.07
75513;BME280;64090;49.770;18.760;2023-06-14T13:16:41;97549.55;;;21.61;46.42
75513;BME280;64090;49.770;18.760;2023-06-14T13:20:10;97540.86;;;21.71;45.73
75513;BME280;64090;49.770;18.760;2023-06-14T13:23:31;97540.44;;;21.72;45.96
75513;BME280;64090;49.770;18.760;2023-06-14T13:26:42;97537.56;;;21.72;45.21
75513;BME280;64090;49.770;18.760;2023-06-14T13:29:55;97529.81;;;21.74;44.95
75513;BME280;64090;49.770;18.760;2023-06-14T13:33:36;97529.69;;;21.97;45.22
75513;BME280;64090;49.770;18.760;2023-06-14T13:36:54;97528.25;;;21.98;44.07
75513;BME280;64090;49.770;18.760;2023-06-14T13:40:04;97528.97;;;21.97;44.38
75513;BME280;64090;49.770;18.760;2023-06-14T13:43:27;97532.00;;;22.16;43.78
75513;BME280;64090;49.770;18.760;2023-06-14T13:46:47;97528.06;;;22.48;43.36
75513;BME280;64090;49.770;18.760;2023-06-14T13:49:57;97528.39;;;22.37;41.94
75513;BME280;64090;49.770;18.760;2023-06-14T13:53:10;97528.69;;;22.36;42.59
75513;BME280;64090;49.770;18.760;2023-06-14T13:56:36;97524.85;;;22.35;41.14
75513;BME280;64090;49.770;18.760;2023-06-14T13:59:55;97522.21;;;22.14;41.45
75513;BME280;64090;49.770;18.760;2023-06-14T14:03:15;97522.45;;;22.36;41.50
75513;BME280;64090;49.770;18.760;2023-06-14T14:06:33;97523.34;;;22.50;41.23
75513;BME280;64090;49.770;18.760;2023-06-14T14:09:54;97524.31;;;22.70;39.20
75513;BME280;64090;49.770;18.760;2023-06-14T14:13:07;97527.67;;;22.61;39.23
75513;BME280;64090;49.770;18.760;2023-06-14T14:16:16;97529.95;;;22.54;39.27
75513;BME280;64090;49.770;18.760;2023-06-14T14:19:30;97526.11;;;22.50;40.63
75513;BME280;64090;49.770;18.760;2023-06-14T14:22:39;97525.98;;;22.89;40.34
75513;BME280;64090;49.770;18.760;2023-06-14T14:25:54;97522.89;;;22.93;39.85
75513;BME280;64090;49.770;18.760;2023-06-14T14:29:00;97519.00;;;22.87;40.92
75513;BME280;64090;49.770;18.760;2023-06-14T14:32:12;97517.91;;;23.11;40.46
75513;BME280;64090;49.770;18.760;2023-06-14T14:35:22;97525.95;;;23.48;40.52
75513;BME280;64090;49.770;18.760;2023-06-14T14:38:30;97524.81;;;23.48;39.85
75513;BME280;64090;49.770;18.760;2023-06-14T14:41:49;97523.65;;;23.18;40.10
75513;BME280;64090;49.770;18.760;2023-06-14T14:44:53;97525.61;;;22.93;40.74
75513;BME280;64090;49.770;18.760;2023-06-14T14:48:02;97527.05;;;22.47;42.94
75513;BME280;64090;49.770;18.760;2023-06-14T14:51:10;97529.09;;;22.10;43.74
75513;BME280;64090;49.770;18.760;2023-06-14T14:54:20;97528.07;;;21.90;44.33
75513;BME280;64090;49.770;18.760;2023-06-14T14:57:42;97530.04;;;21.79;44.44
75513;BME280;64090;49.770;18.760;2023-06-14T15:01:14;97524.95;;;21.72;44.16
75513;BME280;64090;49.770;18.760;2023-06-14T15:04:26;97521.70;;;21.60;44.55
75513;BME280;64090;49.770;18.760;2023-06-14T15:07:46;97526.30;;;21.40;43.84
75513;BME280;64090;49.770;18.760;2023-06-14T15:11:10;97524.05;;;21.27;44.50
75513;BME280;64090;49.770;18.760;2023-06-14T15:14:32;97528.10;;;21.06;46.16
75513;BME280;64090;49.770;18.760;2023-06-14T15:17:50;97530.65;;;20.82;46.07
75513;BME280;64090;49.770;18.760;2023-06-14T15:21:02;97527.55;;;20.87;45.70
75513;BME280;64090;49.770;18.760;2023-06-14T15:24:17;97520.81;;;21.04;46.00
75513;BME280;64090;49.770;18.760;2023-06-14T15:27:47;97517.53;;;21.21;45.62
75513;BME280;64090;49.770;18.760;2023-06-14T15:31:10;97515.89;;;21.15;44.81
75513;BME280;64090;49.770;18.760;2023-06-14T15:34:24;97519.13;;;21.08;44.87
75513;BME280;64090;49.770;18.760;2023-06-14T15:37:43;97519.74;;;21.13;45.35
75513;BME280;64090;49.770;18.760;2023-06-14T15:40:52;97520.04;;;21.19;46.46
75513;BME280;64090;49.770;18.760;2023-06-14T15:44:00;97517.60;;;21.09;45.99
75513;BME280;64090;49.770;18.760;2023-06-14T15:47:33;97514.67;;;21.11;45.93
75513;BME280;64090;49.770;18.760;2023-06-14T15:50:39;97516.00;;;21.15;46.08
75513;BME280;64090;49.770;18.760;2023-06-14T15:54:04;97518.39;;;20.92;46.50
75513;BME280;64090;49.770;18.760;2023-06-14T15:57:29;97517.45;;;20.50;47.17
75513;BME280;64090;49.770;18.760;2023-06-14T16:00:34;97517.95;;;20.09;48.35
75513;BME280;64090;49.770;18.760;2023-06-14T16:03:44;97515.70;;;19.67;49.65
75513;BME280;64090;49.770;18.760;2023-06-14T16:07:15;97518.13;;;19.38;50.88
75513;BME280;64090;49.770;18.760;2023-06-14T16:10:38;97517.56;;;19.17;51.72
75513;BME280;64090;49.770;18.760;2023-06-14T16:13:57;97519.27;;;19.08;52.16
75513;BME280;64090;49.770;18.760;2023-06-14T16:17:21;97524.41;;;18.98;52.65
75513;BME280;64090;49.770;18.760;2023-06-14T16:20:40;97528.38;;;18.95;53.14
75513;BME280;64090;49.770;18.760;2023-06-14T16:23:51;97528.52;;;19.06;53.75
75513;BME280;64090;49.770;18.760;2023-06-14T16:27:04;97528.05;;;19.43;53.42
75513;BME280;64090;49.770;18.760;2023-06-14T16:30:23;97529.08;;;19.70;52.89
75513;BME280;64090;49.770;18.760;2023-06-14T16:33:38;97533.95;;;19.93;52.38
75513;BME280;64090;49.770;18.760;2023-06-14T16:37:05;97539.38;;;20.12;52.36
75513;BME280;64090;49.770;18.760;2023-06-14T16:40:14;97539.91;;;20.23;51.76
75513;BME280;64090;49.770;18.760;2023-06-14T16:43:36;97547.09;;;20.18;51.27
75513;BME280;64090;49.770;18.760;2023-06-14T16:46:46;97544.30;;;20.11;51.35
75513;BME280;64090;49.770;18.760;2023-06-14T16:50:06;97548.88;;;20.22;51.59
75513;BME280;64090;49.770;18.760;2023-06-14T16:53:18;97549.11;;;19.91;51.81
75513;BME280;64090;49.770;18.760;2023-06-14T16:56:24;97556.31;;;19.62;51.77
75513;BME280;64090;49.770;18.760;2023-06-14T16:59:37;97560.21;;;19.28;52.49
75513;BME280;64090;49.770;18.760;2023-06-14T17:02:50;97559.21;;;18.98;52.90
75513;BME280;64090;49.770;18.760;2023-06-14T17:05:58;97567.02;;;18.85;53.07
75513;BME280;64090;49.770;18.760;2023-06-14T17:09:20;97570.77;;;19.05;53.21
75513;BME280;64090;49.770;18.760;2023-06-14T17:12:27;97571.98;;;19.11;52.92
75513;BME280;64090;49.770;18.760;2023-06-14T17:15:50;97578.66;;;18.97;52.93
75513;BME280;64090;49.770;18.760;2023-06-14T17:18:57;97584.54;;;18.68;53.49
75513;BME280;64090;49.770;18.760;2023-06-14T17:22:11;97587.65;;;18.42;54.11
75513;BME280;64090;49.770;18.760;2023-06-14T17:25:23;97586.96;;;18.18;54.95
75513;BME280;64090;49.770;18.760;2023-06-14T17:28:43;97585.70;;;17.88;55.66
75513;BME280;64090;49.770;18.760;2023-06-14T17:31:50;97595.21;;;17.61;56.49
75513;BME280;64090;49.770;18.760;2023-06-14T17:34:58;97602.95;;;17.34;56.99
75513;BME280;64090;49.770;18.760;2023-06-14T17:38:29;97608.15;;;17.11;57.52
75513;BME280;64090;49.770;18.760;2023-06-14T17:42:00;97615.40;;;16.89;58.12